Time;durP1;ratioP1;P1;durP2;ratioP2;P2;SDS_P1;SDS_P2;PMS_P1;PMS_P2;Temp;Humidity;BMP_temperature;BMP_pressure;BME280_temperature;BME280_humidity;BME280_pressure;Samples;Min_cycle;Max_cycle;Signal;HPM_P1;HPM_P2
2021/01/04 00:00:24;;;;;;;14.55;9.80;;;1.80;99.90;;;2.29;92.83;100574.22;5004450;28;20120;-88
2021/01/04 00:03:24;;;;;;;23.67;12.15;;;1.70;99.90;;;2.22;93.01;100576.56;5002618;28;20477;-85
2021/01/04 00:06:17;;;;;;;29.27;14.93;;;1.80;99.90;;;2.26;93.30;100574.00;5002668;28;20018;-87
2021/01/04 00:09:30;;;;;;;14.98;10.07;;;1.70;99.90;;;2.16;93.12;100582.47;5003706;28;20090;-85
2021/01/04 00:12:20;;;;;;;18.45;11.88;;;1.70;99.90;;;2.29;93.06;100573.41;5001804;28;20032;-88
2021/01/04 00:15:05;;;;;;;18.60;10.35;;;1.70;99.90;;;2.35;92.52;100578.50;5001114;28;20034;-85
2021/01/04 00:18:18;;;;;;;18.25;11.20;;;1.70;99.90;;;2.33;92.67;100579.94;5001519;28;20030;-85
2021/01/04 00:21:15;;;;;;;15.85;9.88;;;1.80;99.90;;;2.26;92.95;100574.00;5001756;28;20044;-85
2021/01/04 00:23:56;;;;;;;13.90;9.80;;;1.80;99.90;;;2.20;93.05;100578.81;5002178;28;20041;-85
2021/01/04 00:26:41;;;;;;;17.33;11.65;;;1.70;99.90;;;2.17;93.03;100582.19;5001971;28;20097;-85
2021/01/04 00:29:08;;;;;;;14.52;10.25;;;1.70;99.90;;;2.30;92.84;100575.03;5001816;28;20429;-85
2021/01/04 00:31:44;;;;;;;22.65;13.55;;;1.70;99.90;;;2.33;92.61;100578.00;5000739;28;20072;-87
2021/01/04 00:34:23;;;;;;;17.92;11.23;;;1.70;99.90;;;2.35;92.58;100574.94;5001267;28;20052;-85
2021/01/04 00:37:17;;;;;;;15.10;10.68;;;1.70;99.90;;;2.28;92.73;100577.31;5019224;28;20076;-85
2021/01/04 00:40:46;;;;;;;16.08;10.68;;;1.70;99.90;;;2.27;92.58;100579.22;5002091;28;20037;-88
2021/01/04 00:43:32;;;;;;;13.70;9.63;;;1.60;99.90;;;2.06;93.13;100583.47;5002522;28;20474;-86
2021/01/04 00:45:59;;;;;;;15.38;10.23;;;1.60;99.90;;;2.13;92.97;100579.22;5003971;28;20516;-87
2021/01/04 00:49:02;;;;;;;15.88;10.70;;;1.60;99.90;;;2.06;93.53;100576.03;5002746;28;20088;-87
2021/01/04 00:52:32;;;;;;;13.43;9.68;;;1.60;99.90;;;2.21;93.16;100572.19;5001453;28;20168;-86
2021/01/04 00:56:05;;;;;;;14.93;10.73;;;1.60;99.90;;;2.21;92.86;100572.19;4940444;29;20122;-86
2021/01/04 00:58:53;;;;;;;13.50;9.00;;;1.60;99.90;;;2.07;93.27;100574.09;5000366;28;20033;-86
2021/01/04 01:01:45;;;;;;;16.65;10.13;;;1.50;99.90;;;1.95;93.86;100576.53;5018077;28;20029;-87
2021/01/04 01:04:58;;;;;;;14.75;10.45;;;1.40;99.90;;;1.91;93.81;100579.06;5000799;28;20224;-85
2021/01/04 01:08:03;;;;;;;16.85;11.23;;;1.40;99.90;;;1.96;93.77;100583.66;5001616;28;20037;-88
2021/01/04 01:10:45;;;;;;;14.68;10.00;;;1.40;99.90;;;1.89;94.15;100586.00;5001869;28;20038;-87
2021/01/04 01:14:00;;;;;;;15.93;10.88;;;1.30;99.90;;;1.96;94.25;100584.47;5002406;28;20449;-89
2021/01/04 01:16:38;;;;;;;15.52;10.98;;;1.30;99.90;;;2.02;94.22;100582.47;5013772;28;20033;-84
2021/01/04 01:19:40;;;;;;;15.73;10.48;;;1.30;99.90;;;2.05;93.86;100584.63;5005322;28;20034;-83
2021/01/04 01:22:14;;;;;;;16.52;9.88;;;1.40;99.90;;;2.05;94.19;100584.63;4998519;28;20045;-86
2021/01/04 01:24:42;;;;;;;15.32;9.80;;;1.40;99.90;;;2.03;93.96;100592.34;4997520;28;20061;-87
2021/01/04 01:27:30;;;;;;;14.15;10.35;;;1.40;99.90;;;2.07;93.94;100590.63;4997432;28;20214;-85
2021/01/04 01:30:54;;;;;;;17.83;10.70;;;1.40;99.90;;;2.09;94.05;100588.38;4997941;28;20037;-86
2021/01/04 01:34:15;;;;;;;13.32;9.90;;;1.40;99.90;;;2.13;93.48;100586.66;5014877;28;20034;-86
2021/01/04 01:37:26;;;;;;;14.80;10.68;;;1.50;99.90;;;2.25;93.04;100595.25;4997137;28;20030;-84
2021/01/04 01:40:54;;;;;;;14.65;10.32;;;1.50;99.90;;;2.24;93.11;100598.31;4997547;28;20037;-85
2021/01/04 01:43:57;;;;;;;15.38;9.77;;;1.60;99.90;;;2.26;93.20;100593.31;5014809;28;20096;-84
2021/01/04 01:47:07;;;;;;;13.23;9.30;;;1.60;99.90;;;2.24;93.03;100592.81;4997516;28;20033;-83
2021/01/04 01:50:11;;;;;;;14.85;9.63;;;1.60;99.90;;;2.29;93.18;100599.03;4998470;28;20077;-83
2021/01/04 01:53:02;;;;;;;13.57;9.40;;;1.60;99.90;;;2.36;92.79;100593.13;4997542;28;20397;-83
2021/01/04 01:55:59;;;;;;;13.90;9.18;;;1.60;99.90;;;2.32;92.90;100601.19;4997395;28;20146;-85
2021/01/04 01:59:06;;;;;;;14.98;10.00;;;1.60;99.90;;;2.33;93.10;100602.00;4997267;28;20036;-86
2021/01/04 02:01:53;;;;;;;;;;;1.70;99.90;;;2.30;92.81;100605.38;5015406;28;20026;-85
2021/01/04 02:04:52;;;;;;;11.70;8.15;;;1.70;99.90;;;2.28;92.57;100602.91;5015291;28;19913;-86
2021/01/04 02:07:44;;;;;;;14.93;9.70;;;1.70;99.90;;;2.30;92.67;100603.44;5015297;28;20041;-84
2021/01/04 02:10:34;;;;;;;11.98;8.98;;;1.60;99.90;;;2.38;91.96;100599.94;4997230;28;20077;-88
2021/01/04 02:13:57;;;;;;;12.30;8.98;;;1.70;99.90;;;2.27;92.65;100612.31;4997128;28;20025;-85
2021/01/04 02:17:11;;;;;;;13.82;9.85;;;1.70;99.90;;;2.30;91.94;100600.69;4982768;28;20044;-85
2021/01/04 02:20:15;;;;;;;13.35;9.30;;;1.70;99.90;;;2.26;92.37;100602.41;4999368;28;20026;-89
2021/01/04 02:24:02;;;;;;;14.65;10.73;;;1.70;99.90;;;2.14;92.45;100602.06;5008358;28;20034;-87
2021/01/04 02:26:28;;;;;;;13.30;9.38;;;1.60;99.90;;;2.11;92.41;100603.50;4996954;28;20022;-86
2021/01/04 02:29:15;;;;;;;13.45;9.57;;;1.50;99.90;;;1.97;93.30;100607.34;5014662;28;20018;-84
2021/01/04 02:31:50;;;;;;;13.77;9.32;;;1.40;99.90;;;2.05;92.65;100606.66;4996349;28;20502;-85
2021/01/04 02:34:27;;;;;;;17.45;10.77;;;1.40;99.90;;;1.98;93.42;100603.47;4996564;28;20029;-87
2021/01/04 02:36:58;;;;;;;16.58;10.90;;;1.40;99.90;;;1.86;93.84;100605.88;4996767;28;20363;-84
2021/01/04 02:39:49;;;;;;;17.50;11.35;;;1.30;99.90;;;1.91;93.90;100601.09;5014508;28;20036;-83
2021/01/04 02:42:35;;;;;;;16.83;12.07;;;1.40;99.90;;;2.00;93.84;100602.03;4996502;28;20029;-85
2021/01/04 02:45:27;;;;;;;16.67;11.63;;;1.40;99.90;;;1.98;93.61;100607.03;4996892;28;20037;-86
2021/01/04 02:48:59;;;;;;;16.75;11.10;;;1.40;99.90;;;2.01;93.58;100597.34;4997326;28;20030;-85
2021/01/04 02:51:37;;;;;;;16.63;11.50;;;1.40;99.90;;;1.93;93.72;100598.84;4978807;28;20581;-84
2021/01/04 02:54:30;;;;;;;16.27;10.60;;;1.40;99.90;;;2.08;93.73;100604.13;4997194;28;20083;-85
2021/01/04 02:57:35;;;;;;;15.65;10.68;;;1.40;99.90;;;1.98;93.88;100601.53;4996467;28;20036;-85
2021/01/04 03:00:13;;;;;;;17.58;11.18;;;1.40;99.90;;;2.08;93.65;100597.78;4996801;28;20375;-84
2021/01/04 03:02:48;;;;;;;17.25;10.80;;;1.40;99.90;;;2.05;93.84;100598.38;4996673;28;20065;-85
2021/01/04 03:05:23;;;;;;;16.50;11.30;;;1.50;99.90;;;1.98;94.08;100606.22;4993679;28;20022;-87
2021/01/04 03:08:02;;;;;;;16.08;11.18;;;1.50;99.90;;;2.05;93.55;100606.66;4996554;28;20510;-84
2021/01/04 03:10:29;;;;;;;16.85;9.68;;;1.50;99.90;;;2.15;93.54;100611.16;4977577;28;20125;-86
2021/01/04 03:13:35;;;;;;;16.00;10.43;;;1.50;99.90;;;2.04;93.97;100603.06;4977153;28;20133;-85
2021/01/04 03:16:26;;;;;;;16.88;9.98;;;1.50;99.90;;;2.11;93.82;100606.25;4977369;28;20486;-86
2021/01/04 03:19:09;;;;;;;16.45;10.57;;;1.50;99.90;;;2.13;93.44;100606.75;4977390;28;20601;-86
2021/01/04 03:21:36;;;;;;;15.93;9.80;;;1.50;99.90;;;2.07;93.33;100602.47;4977610;28;20034;-85
2021/01/04 03:24:16;;;;;;;14.38;10.18;;;1.50;99.90;;;2.21;93.07;100607.19;4994905;28;20113;-86
2021/01/04 03:27:05;;;;;;;12.93;10.05;;;1.60;99.90;;;2.13;93.52;100606.75;4994325;28;20038;-85
2021/01/04 03:29:31;;;;;;;16.48;10.05;;;1.50;99.90;;;2.20;93.16;100609.13;4978542;28;20062;-86
2021/01/04 03:31:57;;;;;;;13.38;9.98;;;1.60;99.90;;;2.19;93.26;100609.41;4979866;28;20030;-86
2021/01/04 03:34:23;;;;;;;14.05;9.90;;;1.60;99.90;;;2.24;92.90;100595.56;4979075;28;20030;-86
2021/01/04 03:36:49;;;;;;;14.77;10.60;;;1.60;99.90;;;2.26;92.53;100599.63;4996991;28;20030;-87
2021/01/04 03:39:15;;;;;;;14.30;9.73;;;1.60;99.90;;;2.24;92.97;100601.06;4980937;28;20437;-88
2021/01/04 03:41:41;;;;;;;14.32;10.40;;;1.60;99.90;;;2.21;92.89;100608.00;4998770;28;20038;-89
2021/01/04 03:44:07;;;;;;;14.95;10.73;;;1.60;99.90;;;2.17;93.43;100601.47;4992008;28;20053;-86
2021/01/04 03:46:33;;;;;;;14.15;10.07;;;1.50;99.90;;;2.11;93.15;100599.94;4986114;28;20505;-87
2021/01/04 03:48:59;;;;;;;14.98;10.40;;;1.60;99.90;;;2.19;92.96;100606.66;4979821;28;20030;-86
2021/01/04 03:51:25;;;;;;;14.32;10.00;;;1.50;99.90;;;2.13;93.01;100605.94;4980937;28;20026;-89
2021/01/04 03:53:51;;;;;;;15.98;10.32;;;1.60;99.90;;;2.11;92.86;100602.69;4998763;28;20034;-85
2021/01/04 03:56:20;;;;;;;13.48;9.23;;;1.60;99.90;;;2.22;92.35;100606.03;4978321;28;20494;-87
2021/01/04 03:58:46;;;;;;;14.23;10.13;;;1.60;99.90;;;2.31;92.36;100615.28;4978156;28;20140;-85
2021/01/04 04:01:12;;;;;;;12.77;9.45;;;1.60;99.90;;;2.30;91.88;100599.84;4978787;28;20097;-88
2021/01/04 04:03:39;;;;;;;16.33;10.38;;;1.60;99.90;;;2.32;92.10;100601.19;4978493;28;20037;-86
2021/01/04 04:06:10;;;;;;;14.88;10.48;;;1.60;99.90;;;2.24;92.39;100598.31;4979986;28;20113;-87
2021/01/04 04:08:35;;;;;;;15.77;10.13;;;1.60;99.90;;;2.29;92.23;100604.53;4980990;28;20018;-85
2021/01/04 04:11:01;;;;;;;12.80;9.02;;;1.60;99.90;;;2.29;91.91;100604.53;4981960;28;20089;-85
2021/01/04 04:13:27;;;;;;;14.20;9.38;;;1.60;99.90;;;2.29;91.93;100606.47;4982315;28;20459;-87
2021/01/04 04:15:53;;;;;;;12.23;9.05;;;1.60;99.90;;;2.25;91.94;100606.25;4982134;28;20482;-86
2021/01/04 04:18:19;;;;;;;14.30;9.05;;;1.60;99.90;;;2.29;92.15;100612.81;4983154;28;20070;-86
2021/01/04 04:20:45;;;;;;;12.25;9.15;;;1.60;99.90;;;2.25;92.15;100609.00;4982461;28;20030;-85
2021/01/04 04:23:11;;;;;;;12.07;8.90;;;1.70;99.90;;;2.22;91.84;100615.13;4984591;28;20077;-85
2021/01/04 04:25:37;;;;;;;11.23;8.35;;;1.60;99.90;;;2.28;91.69;100618.63;4986423;28;20030;-88
2021/01/04 04:28:03;;;;;;;12.40;8.75;;;1.60;99.90;;;2.28;91.99;100611.16;4984137;28;20057;-88
2021/01/04 04:30:29;;;;;;;13.02;9.45;;;1.60;99.90;;;2.36;91.37;100613.22;5002314;28;20133;-87
2021/01/04 04:32:58;;;;;;;11.50;8.88;;;1.60;99.90;;;2.32;91.96;100614.94;4985823;28;20380;-87
2021/01/04 04:35:27;;;;;;;12.82;8.73;;;1.60;99.90;;;2.33;91.76;100621.28;5003781;28;20034;-85
2021/01/04 04:37:53;;;;;;;13.75;9.20;;;1.60;99.90;;;2.21;91.86;100626.47;4985896;28;20030;-84
2021/01/04 04:40:38;;;;;;;12.45;9.48;;;1.70;99.90;;;2.29;91.96;100625.75;4984377;28;20030;-88
2021/01/04 04:43:37;;;;;;;15.20;9.48;;;1.70;99.90;;;2.27;91.71;100622.50;4982009;28;20084;-84
2021/01/04 04:46:37;;;;;;;13.23;8.95;;;1.70;99.90;;;2.16;92.16;100623.78;4981768;28;20069;-86
2021/01/04 04:49:56;;;;;;;13.10;8.57;;;1.60;99.90;;;2.25;91.81;100628.31;4982817;28;20376;-87
2021/01/04 04:53:23;;;;;;;12.02;9.05;;;1.70;99.90;;;2.26;91.84;100620.88;4982560;28;20386;-86
2021/01/04 04:56:13;;;;;;;15.00;8.43;;;1.60;99.90;;;2.30;91.71;100619.97;4962638;28;20057;-86
2021/01/04 04:59:31;;;;;;;11.80;8.80;;;1.70;99.90;;;2.27;91.66;100631.59;4981580;28;20030;-87
2021/01/04 05:02:19;;;;;;;13.70;8.63;;;1.70;99.90;;;2.33;91.70;100624.88;4980999;28;20126;-87
2021/01/04 05:05:24;;;;;;;13.05;8.43;;;1.60;99.90;;;2.43;91.31;100630.19;4992410;28;20117;-85
2021/01/04 05:08:58;;;;;;;12.95;7.90;;;1.70;99.90;;;2.33;91.62;100630.38;4986052;28;20058;-85
2021/01/04 05:11:36;;;;;;;13.35;8.45;;;1.70;99.90;;;2.34;91.25;100621.00;5000302;28;20048;-86
2021/01/04 05:14:17;;;;;;;12.15;8.85;;;1.70;99.90;;;2.29;91.42;100621.06;4980569;28;20034;-86
2021/01/04 05:17:50;;;;;;;14.25;8.65;;;1.70;99.90;;;2.20;91.87;100616.56;4980153;28;20035;-85
2021/01/04 05:21:03;;;;;;;13.60;9.00;;;1.70;99.90;;;2.26;91.78;100626.38;4967700;28;20042;-83
2021/01/04 05:24:06;;;;;;;14.63;8.95;;;1.60;99.90;;;2.25;91.59;100620.03;4979533;28;20031;-83
2021/01/04 05:27:29;;;;;;;13.85;9.35;;;1.60;99.90;;;2.19;92.48;100628.69;4978906;28;20026;-85
2021/01/04 05:30:40;;;;;;;15.38;10.27;;;1.60;99.90;;;2.25;92.62;100625.56;4978312;28;20169;-83
2021/01/04 05:33:59;;;;;;;16.17;10.20;;;1.60;99.90;;;2.22;92.29;100625.34;4996249;28;20061;-84
2021/01/04 05:36:49;;;;;;;16.17;10.57;;;1.60;99.90;;;2.19;92.58;100625.94;4978300;28;20030;-82
2021/01/04 05:39:21;;;;;;;17.02;11.10;;;1.50;99.90;;;2.18;92.88;100627.91;4996796;28;20035;-85
2021/01/04 05:42:01;;;;;;;15.60;10.20;;;1.50;99.90;;;2.07;93.13;100637.47;4978082;28;20040;-86
2021/01/04 05:45:10;;;;;;;18.30;11.18;;;1.50;99.90;;;2.15;93.14;100627.69;4978169;28;20045;-84
2021/01/04 05:47:57;;;;;;;15.32;10.70;;;1.50;99.90;;;2.21;92.93;100630.06;4978081;28;20037;-86
2021/01/04 05:50:43;;;;;;;17.38;11.05;;;1.60;99.90;;;2.24;92.83;100634.13;4978262;28;20049;-82
2021/01/04 05:53:09;;;;;;;14.38;9.50;;;1.60;99.90;;;2.23;92.54;100627.81;4978222;28;20084;-86
2021/01/04 05:55:35;;;;;;;16.70;10.52;;;1.60;99.90;;;2.10;93.05;100629.41;4978247;28;20044;-85
2021/01/04 05:58:19;;;;;;;18.00;10.55;;;1.60;99.90;;;2.22;92.96;100633.59;4995640;28;20117;-84
2021/01/04 06:00:45;;;;;;;15.90;10.68;;;1.60;99.90;;;2.17;92.75;100633.72;4978195;28;20153;-84
2021/01/04 06:03:18;;;;;;;13.70;9.95;;;1.60;99.90;;;2.03;93.21;100630.91;4978128;28;20042;-85
2021/01/04 06:05:47;;;;;;;15.30;9.60;;;1.60;99.90;;;2.19;92.48;100635.03;4978019;28;20041;-85
2021/01/04 06:08:29;;;;;;;15.40;10.18;;;1.60;99.90;;;2.21;92.46;100643.84;4979235;28;20037;-82
2021/01/04 06:11:14;;;;;;;13.95;10.45;;;1.60;99.90;;;2.19;92.49;100643.31;4987593;28;20030;-81
2021/01/04 06:13:46;;;;;;;14.40;9.88;;;1.70;99.90;;;2.23;92.25;100635.25;5000465;28;20049;-85
2021/01/04 06:16:17;;;;;;;15.18;9.85;;;1.60;99.90;;;2.27;92.34;100642.63;4986486;28;20563;-87
2021/01/04 06:18:55;;;;;;;14.68;9.80;;;1.70;99.90;;;2.21;92.45;100643.84;4981488;28;20069;-88
2021/01/04 06:21:50;;;;;;;15.73;9.07;;;1.70;99.90;;;2.25;91.51;100647.59;4982058;28;20081;-88
2021/01/04 06:24:31;;;;;;;15.02;9.75;;;1.70;99.90;;;2.24;91.49;100647.91;4981949;28;20026;-87
2021/01/04 06:27:12;;;;;;;15.25;10.30;;;1.70;99.90;;;2.25;91.68;100650.34;4980028;28;20117;-85
2021/01/04 06:29:48;;;;;;;15.32;9.45;;;1.70;99.90;;;2.36;91.67;100654.56;4978577;28;20031;-88
2021/01/04 06:32:31;;;;;;;12.73;8.65;;;1.70;99.90;;;2.29;91.62;100656.09;4980414;28;20029;-88
2021/01/04 06:35:17;;;;;;;14.65;9.20;;;1.70;99.90;;;2.29;91.29;100659.66;4997142;28;20030;-86
2021/01/04 06:37:44;;;;;;;15.73;9.05;;;1.70;99.90;;;2.35;91.15;100663.97;4982067;28;20023;-87
2021/01/04 06:40:34;;;;;;;14.80;9.55;;;1.70;99.90;;;2.32;91.13;100667.31;4982115;28;20029;-87
2021/01/04 06:43:34;;;;;;;14.50;10.07;;;1.70;99.90;;;2.31;91.04;100668.44;4979257;28;20105;-86
2021/01/04 06:46:25;;;;;;;12.88;8.93;;;1.80;99.90;;;2.29;91.45;100672.63;4978245;28;20030;-88
2021/01/04 06:49:12;;;;;;;15.02;10.05;;;1.80;99.90;;;2.36;91.50;100673.03;4978208;28;20117;-85
2021/01/04 06:52:48;;;;;;;14.45;8.82;;;1.80;99.90;;;2.36;91.57;100665.59;4977772;28;20022;-87
2021/01/04 06:55:57;;;;;;;15.48;10.57;;;1.80;99.90;;;2.40;91.45;100665.81;4979789;28;20430;-85
2021/01/04 06:59:01;;;;;;;15.15;9.82;;;1.80;99.90;;;2.34;91.69;100670.63;4997455;28;20272;-87
2021/01/04 07:02:22;;;;;;;14.07;9.20;;;1.80;99.90;;;2.36;91.36;100676.63;4978356;28;20061;-87
2021/01/04 07:05:15;;;;;;;12.98;8.65;;;1.80;99.90;;;2.44;91.34;100673.16;4977777;28;20030;-86
2021/01/04 07:08:37;;;;;;;15.85;9.52;;;1.80;99.90;;;2.41;91.69;100676.53;4977123;28;20041;-86
2021/01/04 07:11:25;;;;;;;14.00;9.38;;;1.80;99.90;;;2.37;91.42;100682.97;4977197;28;20034;-85
2021/01/04 07:14:25;;;;;;;15.30;9.50;;;1.80;99.90;;;2.42;91.18;100689.19;4977247;28;20487;-89
2021/01/04 07:17:40;;;;;;;14.00;10.15;;;1.80;99.90;;;2.46;91.16;100687.47;4976967;28;20031;-87
2021/01/04 07:21:06;;;;;;;13.13;8.90;;;1.80;99.90;;;2.41;90.91;100695.81;4976988;28;20027;-85
2021/01/04 07:24:02;;;;;;;15.00;8.70;;;1.80;99.90;;;2.43;90.58;100696.34;4976642;28;20073;-86
2021/01/04 07:27:20;;;;;;;13.85;10.57;;;1.90;99.90;;;2.51;90.47;100694.81;4976894;28;20030;-87
2021/01/04 07:30:15;;;;;;;12.55;8.77;;;1.90;99.90;;;2.57;89.94;100704.63;4977131;28;20114;-84
2021/01/04 07:33:16;;;;;;;12.77;9.02;;;1.80;99.90;;;2.49;90.10;100703.41;4977074;28;20121;-86
2021/01/04 07:36:03;;;;;;;14.13;9.45;;;1.90;99.90;;;2.38;90.78;100701.13;4977412;28;20030;-88
2021/01/04 07:39:23;;;;;;;15.07;9.18;;;1.80;99.90;;;2.43;91.04;100707.38;4978536;28;20030;-86
2021/01/04 07:42:14;;;;;;;11.38;7.72;;;1.80;99.90;;;2.48;90.46;100712.78;4996479;28;20078;-89
2021/01/04 07:45:27;;;;;;;13.25;9.05;;;1.80;99.90;;;2.51;90.44;100714.94;4982765;28;20490;-87
2021/01/04 07:49:08;;;;;;;13.43;9.40;;;1.80;99.90;;;2.54;90.67;100711.56;4990607;28;20113;-87
2021/01/04 07:52:21;;;;;;;14.77;9.40;;;1.90;99.90;;;2.47;90.56;100705.63;4964360;28;20126;-86
2021/01/04 07:56:03;;;;;;;14.20;9.55;;;1.80;99.90;;;2.49;90.98;100719.94;4999457;28;20042;-86
2021/01/04 07:59:14;;;;;;;14.18;8.55;;;1.80;99.90;;;2.44;91.21;100713.72;4979945;28;20104;-86
2021/01/04 08:02:02;;;;;;;13.82;9.23;;;1.80;99.90;;;2.46;91.17;100720.56;4966379;28;20158;-87
2021/01/04 08:05:24;;;;;;;16.25;11.13;;;1.90;99.90;;;2.41;91.75;100728.91;4983577;28;20043;-87
2021/01/04 08:08:27;;;;;;;15.00;9.38;;;1.80;99.90;;;2.51;90.63;100725.97;4982106;28;20030;-86
2021/01/04 08:11:32;;;;;;;14.95;10.30;;;1.80;99.90;;;2.53;90.44;100723.75;4982975;28;20054;-85
2021/01/04 08:14:28;;;;;;;15.75;9.77;;;1.90;99.90;;;2.49;90.74;100722.72;4984541;28;20022;-85
2021/01/04 08:17:18;;;;;;;16.02;10.27;;;1.90;99.90;;;2.48;90.46;100720.25;4984215;28;20030;-87
2021/01/04 08:19:51;;;;;;;17.50;10.60;;;1.80;99.90;;;2.50;90.93;100738.13;5000172;28;20038;-87
2021/01/04 08:23:16;;;;;;;15.05;9.77;;;1.90;99.90;;;2.46;90.60;100736.28;4983384;28;20030;-86
2021/01/04 08:26:15;;;;;;;20.10;10.20;;;1.80;99.90;;;2.42;90.55;100740.75;4986084;28;20034;-86
2021/01/04 08:29:15;;;;;;;15.90;10.15;;;1.80;99.90;;;2.40;90.74;100743.81;4987200;28;20108;-86
2021/01/04 08:32:12;;;;;;;13.80;9.63;;;1.80;99.90;;;2.49;90.66;100747.53;4988243;28;20132;-85
2021/01/04 08:35:31;;;;;;;15.30;9.70;;;1.90;99.90;;;2.55;90.83;100753.75;4990990;28;20177;-85
2021/01/04 08:38:32;;;;;;;15.35;9.82;;;1.80;99.90;;;2.60;90.53;100753.69;4992960;28;20045;-87
2021/01/04 08:41:33;;;;;;;14.93;9.65;;;1.90;99.90;;;2.54;90.96;100750.19;4995875;28;20014;-84
2021/01/04 08:44:21;;;;;;;14.93;9.65;;;1.90;99.90;;;2.53;90.69;100747.75;4961288;28;20043;-86
2021/01/04 08:46:47;;;;;;;14.05;9.15;;;1.90;99.90;;;2.47;90.95;100755.25;4987638;28;20043;-86
2021/01/04 08:49:22;;;;;;;13.30;8.77;;;1.90;99.90;;;2.44;90.68;100749.56;5005141;28;20033;-87
2021/01/04 08:51:52;;;;;;;13.95;9.00;;;1.90;99.90;;;2.44;90.65;100760.59;4986311;28;20030;-84
2021/01/04 08:54:30;;;;;;;15.27;9.57;;;1.90;99.90;;;2.37;90.68;100751.88;4983043;28;20069;-87
2021/01/04 08:57:42;;;;;;;15.73;9.80;;;1.80;99.90;;;2.40;91.54;100754.84;4983472;28;20034;-86
2021/01/04 09:00:30;;;;;;;14.15;10.05;;;1.80;99.90;;;2.39;91.31;100752.38;4984026;28;20066;-86
2021/01/04 09:02:59;;;;;;;14.93;10.07;;;1.90;99.90;;;2.46;91.14;100750.88;4999537;28;20089;-86
2021/01/04 09:05:38;;;;;;;14.93;9.30;;;1.80;99.90;;;2.44;90.69;100752.31;4983118;28;20050;-87
2021/01/04 09:08:10;;;;;;;14.48;8.75;;;1.80;99.90;;;2.41;90.71;100755.66;4984446;28;20061;-86
2021/01/04 09:10:52;;;;;;;13.05;9.35;;;1.90;99.90;;;2.46;90.40;100750.06;5001929;28;20050;-86
2021/01/04 09:13:39;;;;;;;13.30;9.02;;;1.90;99.90;;;2.51;90.78;100756.28;4983991;28;20038;-85
2021/01/04 09:16:31;;;;;;;12.57;8.38;;;1.90;99.90;;;2.54;90.06;100763.13;4987284;28;20034;-83
2021/01/04 09:19:33;;;;;;;12.45;8.73;;;1.90;99.90;;;2.63;89.94;100758.59;4998377;28;20038;-83
2021/01/04 09:22:24;;;;;;;12.43;8.18;;;2.00;99.90;;;2.58;90.05;100764.19;4989971;28;20339;-84
2021/01/04 09:24:50;;;;;;;12.35;7.63;;;2.00;99.90;;;2.60;89.91;100767.47;4989715;28;20030;-86
2021/01/04 09:27:27;;;;;;;13.18;8.00;;;2.00;99.90;;;2.51;89.87;100763.75;4987986;28;20022;-87
2021/01/04 09:30:08;;;;;;;11.70;7.80;;;1.90;99.90;;;2.56;89.82;100761.75;4984080;28;20023;-86
2021/01/04 09:32:42;;;;;;;12.65;8.63;;;1.90;99.90;;;2.56;90.11;100766.44;4983757;28;20096;-87
2021/01/04 09:35:24;;;;;;;12.68;9.02;;;2.00;99.90;;;2.65;89.76;100764.63;4982726;28;20036;-88
2021/01/04 09:38:08;;;;;;;14.38;8.90;;;2.00;99.90;;;2.53;90.49;100761.53;4982460;28;20080;-88
2021/01/04 09:40:39;;;;;;;14.60;9.18;;;2.00;99.90;;;2.60;90.20;100759.19;4982440;28;20069;-88
2021/01/04 09:43:12;;;;;;;14.00;8.38;;;2.10;99.90;;;2.53;90.02;100759.59;4982225;28;20037;-87
2021/01/04 09:45:39;;;;;;;14.50;9.15;;;2.00;99.90;;;2.60;90.42;100756.44;4982510;28;20026;-86
2021/01/04 09:48:39;;;;;;;13.35;8.50;;;2.00;99.90;;;2.67;89.62;100757.66;4982031;28;20080;-86
2021/01/04 09:51:15;;;;;;;17.20;9.50;;;2.10;99.90;;;2.73;89.91;100757.59;4982105;28;20030;-88
2021/01/04 09:54:02;;;;;;;17.13;10.10;;;2.10;99.90;;;2.69;90.17;100751.84;4999968;28;20026;-89
2021/01/04 09:56:37;;;;;;;;;;;2.10;99.90;;;2.74;89.80;100756.44;4997891;28;20038;-88
2021/01/04 09:59:23;;;;;;;14.60;8.80;;;2.10;99.90;;;2.61;90.81;100758.88;4981681;28;19916;-88
2021/01/04 10:02:01;;;;;;;13.85;8.50;;;2.10;99.90;;;2.73;89.91;100763.09;4997441;28;20034;-87
2021/01/04 10:04:31;;;;;;;15.82;9.52;;;2.10;99.90;;;2.62;90.95;100763.28;4980733;28;20100;-86
2021/01/04 10:07:07;;;;;;;16.58;9.63;;;2.00;99.90;;;2.57;90.42;100763.34;4981977;28;20060;-88
2021/01/04 10:09:48;;;;;;;;;;;2.00;99.90;;;2.54;90.61;100761.19;4983457;28;20041;-86
2021/01/04 10:12:23;;;;;;;16.77;9.90;;;2.00;99.90;;;2.57;91.04;100768.88;4981228;28;20293;-87
2021/01/04 10:15:02;;;;;;;15.77;10.18;;;1.90;99.90;;;2.50;91.45;100762.94;4981493;28;20442;-87
2021/01/04 10:17:47;;;;;;;17.80;10.40;;;1.90;99.90;;;2.52;91.73;100768.16;4979699;28;20529;-88
2021/01/04 10:20:37;;;;;;;20.52;11.25;;;1.90;99.90;;;2.39;92.03;100761.47;4999957;28;20030;-87
2021/01/04 10:23:20;;;;;;;18.35;11.05;;;1.90;99.90;;;2.56;91.64;100758.16;4999376;28;20022;-88
2021/01/04 10:25:58;;;;;;;20.80;12.00;;;1.90;99.90;;;2.65;91.32;100759.09;5017411;28;20092;-88
2021/01/04 10:28:35;;;;;;;19.75;11.82;;;1.90;99.90;;;2.63;91.66;100764.91;5004219;28;20088;-84
2021/01/04 10:31:14;;;;;;;21.63;12.25;;;1.90;99.90;;;2.59;92.12;100757.56;5007339;28;20018;-89
2021/01/04 10:33:42;;;;;;;21.13;12.48;;;1.90;99.90;;;2.74;91.53;100764.72;5004460;28;20095;-89
2021/01/04 10:36:13;;;;;;;20.92;11.55;;;2.00;99.90;;;2.76;91.51;100757.78;5001192;28;20026;-90
2021/01/04 10:38:55;;;;;;;18.88;11.90;;;2.10;99.90;;;2.67;90.83;100751.31;5001987;28;20386;-87
2021/01/04 10:41:30;;;;;;;18.10;11.32;;;2.10;99.90;;;2.82;91.17;100753.81;4999947;28;20034;-86
2021/01/04 10:44:24;;;;;;;19.20;11.87;;;2.20;99.90;;;2.87;91.52;100750.13;4999556;28;20043;-89
2021/01/04 10:47:34;;;;;;;19.00;11.55;;;2.20;99.90;;;2.96;90.71;100751.06;4996433;28;20431;-87
2021/01/04 10:50:35;;;;;;;20.75;11.48;;;2.30;99.90;;;2.94;91.19;100754.16;4995370;28;20027;-88
2021/01/04 10:53:26;;;;;;;17.77;10.57;;;2.30;99.90;;;3.11;90.35;100746.06;4998437;28;20089;-89
2021/01/04 10:56:14;;;;;;;20.80;11.32;;;2.40;99.90;;;3.20;90.46;100748.94;4999446;28;20459;-86
2021/01/04 10:58:46;;;;;;;20.50;11.10;;;2.40;99.90;;;3.28;90.15;100737.19;4999223;28;20032;-88
2021/01/04 11:01:22;;;;;;;17.77;11.45;;;2.50;99.90;;;3.27;90.44;100738.31;4998535;28;20037;-87
2021/01/04 11:04:07;;;;;;;18.65;11.05;;;2.50;99.90;;;3.34;89.58;100737.91;5004160;28;20034;-86
2021/01/04 11:06:45;;;;;;;17.27;11.23;;;2.50;99.90;;;3.30;89.45;100734.13;5012375;28;20036;-88
2021/01/04 11:09:39;;;;;;;18.00;10.93;;;2.60;99.90;;;3.38;88.85;100731.44;5005663;28;20113;-87
2021/01/04 11:12:21;;;;;;;20.23;12.40;;;2.60;99.90;;;3.35;89.04;100731.25;4999296;28;20026;-88
2021/01/04 11:15:04;;;;;;;17.75;10.65;;;2.70;99.90;;;3.39;88.40;100729.50;4999977;28;20093;-88
2021/01/04 11:17:39;;;;;;;17.52;10.32;;;2.70;99.90;;;3.48;88.16;100719.38;4999819;28;20104;-87
2021/01/04 11:20:15;;;;;;;18.85;11.25;;;2.70;99.90;;;3.70;87.85;100727.72;5000119;28;20120;-89
2021/01/04 11:22:43;;;;;;;17.42;11.13;;;2.90;99.90;;;3.65;87.13;100720.38;4998778;28;20034;-89
2021/01/04 11:25:13;;;;;;;16.23;10.60;;;2.90;99.90;;;3.62;87.48;100723.75;4999223;28;20033;-88
2021/01/04 11:28:05;;;;;;;17.90;11.43;;;2.90;99.90;;;3.68;87.64;100710.63;5017169;28;20570;-87
2021/01/04 11:30:32;;;;;;;18.25;11.32;;;3.00;99.90;;;3.72;86.72;100708.91;4997749;28;20030;-88
2021/01/04 11:33:02;;;;;;;17.73;11.02;;;3.00;99.90;;;3.64;87.28;100709.63;4998969;28;20036;-88
2021/01/04 11:35:30;;;;;;;19.52;11.88;;;3.00;99.90;;;3.61;87.25;100702.78;4999065;28;20029;-88
2021/01/04 11:37:58;;;;;;;19.77;11.52;;;2.90;99.90;;;3.65;86.99;100701.03;5016383;28;20026;-88
2021/01/04 11:40:29;;;;;;;19.30;12.88;;;2.90;99.90;;;3.68;86.68;100702.34;4999975;28;20057;-84
2021/01/04 11:42:57;;;;;;;20.60;12.20;;;2.90;99.90;;;3.65;86.43;100697.44;4998749;28;20030;-87
2021/01/04 11:45:23;;;;;;;18.73;11.75;;;2.90;99.90;;;3.71;86.55;100696.22;4995564;28;20080;-90